createdAt,value
2018-12-06T00:00:45.161Z,1008.78
2018-12-06T00:01:45.095Z,1008.82
2018-12-06T00:02:45.044Z,1008.78
2018-12-06T00:03:44.990Z,1008.77
2018-12-06T00:04:44.949Z,1008.78
2018-12-06T00:05:44.907Z,1008.78
2018-12-06T00:06:44.885Z,1008.81
2018-12-06T00:07:44.812Z,1008.75
2018-12-06T00:08:44.777Z,1008.75
2018-12-06T00:09:44.738Z,1008.77
2018-12-06T00:10:44.682Z,1008.78
2018-12-06T00:11:44.641Z,1008.75
2018-12-06T00:12:44.622Z,1008.77
2018-12-06T00:13:44.555Z,1008.75
2018-12-06T00:14:44.522Z,1008.76
2018-12-06T00:15:44.472Z,1008.82
2018-12-06T00:16:44.434Z,1008.80
2018-12-06T00:17:44.416Z,1008.87
2018-12-06T00:18:44.340Z,1008.84
2018-12-06T00:19:44.297Z,1008.81
2018-12-06T00:20:44.255Z,1008.83
2018-12-06T00:21:44.209Z,1008.73
2018-12-06T00:22:44.201Z,1008.77
2018-12-06T00:23:44.135Z,1008.75
2018-12-06T00:24:44.085Z,1008.77
2018-12-06T00:25:44.040Z,1008.78
2018-12-06T00:26:44.026Z,1008.76
2018-12-06T00:27:43.983Z,1008.74
2018-12-06T00:28:43.940Z,1008.70
2018-12-06T00:29:43.870Z,1008.80
2018-12-06T00:30:43.828Z,1008.78
2018-12-06T00:31:43.783Z,1008.76
2018-12-06T00:32:43.763Z,1008.83
2018-12-06T00:33:43.695Z,1008.82
2018-12-06T00:34:43.662Z,1008.83
2018-12-06T00:35:43.618Z,1008.82
2018-12-06T00:36:43.597Z,1008.78
2018-12-06T00:37:43.528Z,1008.84
2018-12-06T00:38:43.507Z,1008.79
2018-12-06T00:39:43.440Z,1008.79
2018-12-06T00:40:43.402Z,1008.82
2018-12-06T00:41:43.360Z,1008.85
2018-12-06T00:42:43.311Z,1008.82
2018-12-06T00:43:43.292Z,1008.87
2018-12-06T00:44:43.230Z,1008.86
2018-12-06T00:45:43.196Z,1008.82
2018-12-06T00:46:43.149Z,1008.80
2018-12-06T00:47:43.100Z,1008.79
2018-12-06T00:48:43.083Z,1008.74
2018-12-06T00:49:43.016Z,1008.77
2018-12-06T00:50:42.961Z,1008.75
2018-12-06T00:51:42.921Z,1008.78
2018-12-06T00:52:42.886Z,1008.76
2018-12-06T00:53:42.866Z,1008.78
2018-12-06T00:54:42.800Z,1008.73
2018-12-06T00:55:42.759Z,1008.79
2018-12-06T00:56:42.711Z,1008.79
2018-12-06T00:57:42.668Z,1008.75
2018-12-06T00:58:42.626Z,1008.74
2018-12-06T00:59:42.630Z,1008.78
2018-12-06T01:00:42.546Z,1008.72
2018-12-06T01:01:42.499Z,1008.74
2018-12-06T01:02:42.453Z,1008.77
2018-12-06T01:03:42.406Z,1008.77
2018-12-06T01:04:42.364Z,1008.77
2018-12-06T01:05:42.351Z,1008.73
2018-12-06T01:06:42.288Z,1008.75
2018-12-06T01:07:42.246Z,1008.75
2018-12-06T01:08:42.197Z,1008.73
2018-12-06T01:09:42.157Z,1008.79
2018-12-06T01:10:42.105Z,1008.76
2018-12-06T01:11:42.088Z,1008.72
2018-12-06T01:12:42.035Z,1008.79
2018-12-06T01:13:41.984Z,1008.75
2018-12-06T01:14:41.934Z,1008.82
2018-12-06T01:15:41.899Z,1008.70
2018-12-06T01:16:41.875Z,1008.75
2018-12-06T01:17:41.811Z,1008.73
2018-12-06T01:18:41.774Z,1008.79
2018-12-06T01:19:41.725Z,1008.78
2018-12-06T01:20:41.685Z,1008.71
2018-12-06T01:21:41.667Z,1008.78
2018-12-06T01:22:41.592Z,1008.72
2018-12-06T01:23:41.548Z,1008.78
2018-12-06T01:24:41.516Z,1008.80
2018-12-06T01:25:41.483Z,1008.77
2018-12-06T01:26:41.429Z,1008.82
2018-12-06T01:27:41.381Z,1008.81
2018-12-06T01:28:41.363Z,1008.80
2018-12-06T01:29:41.288Z,1008.82
2018-12-06T01:30:41.255Z,1008.74
2018-12-06T01:31:41.210Z,1008.73
2018-12-06T01:32:41.174Z,1008.75
2018-12-06T01:33:41.130Z,1008.76
2018-12-06T01:34:41.104Z,1008.75
2018-12-06T01:35:41.033Z,1008.77
2018-12-06T01:36:40.990Z,1008.76
2018-12-06T01:37:40.948Z,1008.77
2018-12-06T01:38:40.909Z,1008.78
2018-12-06T01:39:40.895Z,1008.79
2018-12-06T01:40:40.824Z,1008.81
2018-12-06T01:41:40.781Z,1008.77
2018-12-06T01:42:40.730Z,1008.81
2018-12-06T01:43:40.689Z,1008.77
2018-12-06T01:44:40.652Z,1008.80
2018-12-06T01:45:40.644Z,1008.78
2018-12-06T01:46:40.558Z,1008.68
2018-12-06T01:47:40.516Z,1008.71
2018-12-06T01:48:40.474Z,1008.77
2018-12-06T01:49:40.435Z,1008.69
2018-12-06T01:50:40.396Z,1008.67
2018-12-06T01:51:40.373Z,1008.69
2018-12-06T01:52:40.308Z,1008.69
2018-12-06T01:53:40.268Z,1008.67
2018-12-06T01:54:40.214Z,1008.68
2018-12-06T01:55:40.183Z,1008.66
2018-12-06T01:56:40.154Z,1008.66
2018-12-06T01:57:40.091Z,1008.70
2018-12-06T01:58:40.052Z,1008.68
2018-12-06T01:59:40.007Z,1008.62
2018-12-06T02:00:39.957Z,1008.67
2018-12-06T02:01:39.939Z,1008.67
2018-12-06T02:02:39.881Z,1008.62
2018-12-06T02:03:39.839Z,1008.64
2018-12-06T02:04:39.791Z,1008.61
2018-12-06T02:05:39.771Z,1008.62
2018-12-06T02:06:39.699Z,1008.62
2018-12-06T02:07:39.688Z,1008.59
2018-12-06T02:08:39.618Z,1008.51
2018-12-06T02:09:39.574Z,1008.57
2018-12-06T02:10:39.542Z,1008.64
2018-12-06T02:11:39.490Z,1008.57
2018-12-06T02:12:39.449Z,1008.58
2018-12-06T02:13:39.436Z,1008.66
2018-12-06T02:14:39.357Z,1008.57
2018-12-06T02:15:39.311Z,1008.63
2018-12-06T02:16:39.276Z,1008.67
2018-12-06T02:17:39.232Z,1008.59
2018-12-06T02:18:39.214Z,1008.62
2018-12-06T02:19:39.143Z,1008.60
2018-12-06T02:20:39.100Z,1008.57
2018-12-06T02:21:39.054Z,1008.60
2018-12-06T02:22:39.020Z,1008.60
2018-12-06T02:23:38.999Z,1008.54
2018-12-06T02:24:38.934Z,1008.55
2018-12-06T02:25:38.918Z,1008.53
2018-12-06T02:26:38.840Z,1008.53
2018-12-06T02:27:38.797Z,1008.52
2018-12-06T02:28:38.756Z,1008.60
2018-12-06T02:29:38.742Z,1008.59
2018-12-06T02:30:38.680Z,1008.57
2018-12-06T02:31:38.634Z,1008.60
2018-12-06T02:32:38.583Z,1008.53
2018-12-06T02:33:38.544Z,1008.58
2018-12-06T02:34:38.503Z,1008.54
2018-12-06T02:35:38.487Z,1008.53
2018-12-06T02:36:38.444Z,1008.49
2018-12-06T02:37:38.398Z,1008.48
2018-12-06T02:38:38.332Z,1008.49
2018-12-06T02:39:38.282Z,1008.44
2018-12-06T02:40:38.321Z,1008.48
2018-12-06T02:41:38.225Z,1008.47
2018-12-06T02:42:38.169Z,1008.50
2018-12-06T02:43:38.118Z,1008.45
2018-12-06T02:44:38.071Z,1008.45
2018-12-06T02:45:38.024Z,1008.47
2018-12-06T02:46:38.002Z,1008.42
2018-12-06T02:47:37.960Z,1008.46
2018-12-06T02:48:37.900Z,1008.46
2018-12-06T02:49:37.861Z,1008.41
2018-12-06T02:50:37.815Z,1008.44
2018-12-06T02:51:37.786Z,1008.44
2018-12-06T02:52:37.744Z,1008.44
2018-12-06T02:53:37.681Z,1008.41
2018-12-06T02:54:37.634Z,1008.45
2018-12-06T02:55:37.595Z,1008.42
2018-12-06T02:56:37.581Z,1008.48
2018-12-06T02:57:37.506Z,1008.45
2018-12-06T02:58:37.459Z,1008.42
2018-12-06T02:59:37.424Z,1008.42
2018-12-06T03:00:37.385Z,1008.45
2018-12-06T03:01:37.341Z,1008.45
2018-12-06T03:02:37.321Z,1008.42
2018-12-06T03:03:37.278Z,1008.42
2018-12-06T03:04:37.204Z,1008.43
2018-12-06T03:05:37.161Z,1008.44
2018-12-06T03:06:37.116Z,1008.44
2018-12-06T03:07:37.083Z,1008.44
2018-12-06T03:08:37.037Z,1008.42
2018-12-06T03:09:37.014Z,1008.49
2018-12-06T03:10:36.949Z,1008.44
2018-12-06T03:11:36.905Z,1008.45
2018-12-06T03:12:36.855Z,1008.47
2018-12-06T03:13:36.842Z,1008.46
2018-12-06T03:14:36.777Z,1008.45
2018-12-06T03:15:36.726Z,1008.48
2018-12-06T03:16:36.686Z,1008.43
2018-12-06T03:17:36.661Z,1008.42
2018-12-06T03:18:36.621Z,1008.48
2018-12-06T03:19:36.562Z,1008.41
2018-12-06T03:20:36.543Z,1008.33
2018-12-06T03:21:36.475Z,1008.37
2018-12-06T03:22:36.431Z,1008.31
2018-12-06T03:23:36.403Z,1008.34
2018-12-06T03:24:36.343Z,1008.31
2018-12-06T03:25:36.295Z,1008.29
2018-12-06T03:26:36.255Z,1008.34
2018-12-06T03:27:36.243Z,1008.30
2018-12-06T03:28:36.171Z,1008.30
2018-12-06T03:29:36.122Z,1008.33
2018-12-06T03:30:36.094Z,1008.30
2018-12-06T03:31:36.042Z,1008.31
2018-12-06T03:32:36.027Z,1008.38
2018-12-06T03:33:35.957Z,1008.34
2018-12-06T03:34:35.911Z,1008.37
2018-12-06T03:35:35.859Z,1008.36
2018-12-06T03:36:35.822Z,1008.37
2018-12-06T03:37:35.798Z,1008.34
2018-12-06T03:38:35.735Z,1008.36
2018-12-06T03:39:35.695Z,1008.42
2018-12-06T03:40:35.654Z,1008.37
2018-12-06T03:41:35.611Z,1008.37
2018-12-06T03:42:35.590Z,1008.38
2018-12-06T03:43:35.514Z,1008.38
2018-12-06T03:44:35.481Z,1008.41
2018-12-06T03:45:35.438Z,1008.43
2018-12-06T03:46:35.394Z,1008.42
2018-12-06T03:47:35.374Z,1008.43
2018-12-06T03:48:35.299Z,1008.43
2018-12-06T03:49:35.256Z,1008.40
2018-12-06T03:50:35.212Z,1008.36
2018-12-06T03:51:35.176Z,1008.41
2018-12-06T03:52:35.137Z,1008.39
2018-12-06T03:53:35.113Z,1008.41
2018-12-06T03:54:35.044Z,1008.43
2018-12-06T03:55:35.000Z,1008.43
2018-12-06T03:56:34.982Z,1008.38
2018-12-06T03:57:34.911Z,1008.37
2018-12-06T03:58:34.866Z,1008.32
2018-12-06T03:59:34.830Z,1008.33
2018-12-06T04:00:34.790Z,1008.31
2018-12-06T04:01:34.739Z,1008.33
2018-12-06T04:02:34.717Z,1008.32
2018-12-06T04:03:34.661Z,1008.36
2018-12-06T04:04:34.614Z,1008.41
2018-12-06T04:05:34.572Z,1008.40
2018-12-06T04:06:34.527Z,1008.39
2018-12-06T04:07:34.504Z,1008.43
2018-12-06T04:08:34.436Z,1008.40
2018-12-06T04:09:34.391Z,1008.45
2018-12-06T04:10:34.346Z,1008.43
2018-12-06T04:11:34.313Z,1008.45
2018-12-06T04:12:34.270Z,1008.40
2018-12-06T04:13:34.257Z,1008.44
2018-12-06T04:14:34.181Z,1008.44
2018-12-06T04:15:34.136Z,1008.47
2018-12-06T04:16:34.089Z,1008.49
2018-12-06T04:17:34.053Z,1008.50
2018-12-06T04:18:34.010Z,1008.56
2018-12-06T04:19:33.979Z,1008.53
2018-12-06T04:20:33.918Z,1008.50
2018-12-06T04:21:33.874Z,1008.54
2018-12-06T04:22:33.832Z,1008.51
2018-12-06T04:23:33.816Z,1008.50
2018-12-06T04:24:33.750Z,1008.54
2018-12-06T04:25:33.707Z,1008.54
2018-12-06T04:26:33.665Z,1008.54
2018-12-06T04:27:33.618Z,1008.57
2018-12-06T04:28:33.595Z,1008.56
2018-12-06T04:29:33.529Z,1008.57
2018-12-06T04:30:33.487Z,1008.58
2018-12-06T04:31:33.454Z,1008.55
2018-12-06T04:32:33.411Z,1008.57
2018-12-06T04:33:33.379Z,1008.58
2018-12-06T04:34:33.314Z,1008.58
2018-12-06T04:35:33.281Z,1008.59
2018-12-06T04:36:33.257Z,1008.57
2018-12-06T04:37:33.194Z,1008.53
2018-12-06T04:38:33.149Z,1008.53
2018-12-06T04:39:33.101Z,1008.54
2018-12-06T04:40:33.082Z,1008.49
2018-12-06T04:41:33.014Z,1008.56
2018-12-06T04:42:32.974Z,1008.48
2018-12-06T04:43:32.935Z,1008.57
2018-12-06T04:44:32.894Z,1008.62
2018-12-06T04:45:32.879Z,1008.64
2018-12-06T04:46:32.805Z,1008.68
2018-12-06T04:47:32.754Z,1008.69
2018-12-06T04:48:32.713Z,1008.74
2018-12-06T04:49:32.679Z,1008.73
2018-12-06T04:50:32.633Z,1008.75
2018-12-06T04:51:32.606Z,1008.71
2018-12-06T04:52:32.545Z,1008.75
2018-12-06T04:53:32.499Z,1008.74
2018-12-06T04:54:32.455Z,1008.79
2018-12-06T04:55:32.419Z,1008.73
2018-12-06T04:56:32.406Z,1008.75
2018-12-06T04:57:32.336Z,1008.75
2018-12-06T04:58:32.289Z,1008.79
2018-12-06T04:59:32.239Z,1008.80
2018-12-06T05:00:32.197Z,1008.77
2018-12-06T05:01:32.181Z,1008.79
2018-12-06T05:02:32.115Z,1008.78
2018-12-06T05:03:32.076Z,1008.77
2018-12-06T05:04:32.040Z,1008.79
2018-12-06T05:05:31.985Z,1008.79
2018-12-06T05:06:31.940Z,1008.79
2018-12-06T05:07:31.931Z,1008.81
2018-12-06T05:08:31.864Z,1008.78
2018-12-06T05:09:31.825Z,1008.82
2018-12-06T05:10:31.776Z,1008.83
2018-12-06T05:11:31.728Z,1008.90
2018-12-06T05:12:31.685Z,1008.83
2018-12-06T05:13:31.663Z,1008.83
2018-12-06T05:14:31.600Z,1008.81
2018-12-06T05:15:31.564Z,1008.84
2018-12-06T05:16:31.522Z,1008.88
2018-12-06T05:17:31.477Z,1008.87
2018-12-06T05:18:31.456Z,1008.92
2018-12-06T05:19:31.385Z,1008.90
2018-12-06T05:20:31.344Z,1008.95
2018-12-06T05:21:31.305Z,1008.95
2018-12-06T05:22:31.262Z,1008.98
2018-12-06T05:23:31.240Z,1008.95
2018-12-06T05:24:31.169Z,1008.92
2018-12-06T05:25:31.130Z,1008.94
2018-12-06T05:26:31.086Z,1008.94
2018-12-06T05:27:31.054Z,1008.90
2018-12-06T05:28:31.034Z,1008.87
2018-12-06T05:29:30.964Z,1008.88
2018-12-06T05:30:30.922Z,1008.84
2018-12-06T05:31:30.872Z,1008.90
2018-12-06T05:32:30.829Z,1008.92
2018-12-06T05:33:30.787Z,1008.88
2018-12-06T05:34:30.768Z,1008.92
2018-12-06T05:35:30.710Z,1008.89
2018-12-06T05:36:30.667Z,1008.89
2018-12-06T05:37:30.617Z,1008.92
2018-12-06T05:38:30.594Z,1008.93
2018-12-06T05:39:30.537Z,1008.90
2018-12-06T05:40:30.495Z,1008.87
2018-12-06T05:41:30.449Z,1008.94
2018-12-06T05:42:30.408Z,1008.92
2018-12-06T05:43:30.386Z,1008.93
2018-12-06T05:44:30.316Z,1008.97
2018-12-06T05:45:30.274Z,1009.03
2018-12-06T05:46:30.255Z,1009.00
2018-12-06T05:47:30.192Z,1009.07
2018-12-06T05:48:30.154Z,1009.11
2018-12-06T05:49:30.132Z,1009.11
2018-12-06T05:50:30.067Z,1009.12
2018-12-06T05:51:30.019Z,1009.12
2018-12-06T05:52:29.979Z,1009.19
2018-12-06T05:53:29.939Z,1009.18
2018-12-06T05:54:29.921Z,1009.17
2018-12-06T05:55:29.868Z,1009.15
2018-12-06T05:56:29.806Z,1009.15
2018-12-06T05:57:29.761Z,1009.18
2018-12-06T05:58:29.715Z,1009.14
2018-12-06T05:59:29.679Z,1009.15
2018-12-06T06:00:29.660Z,1009.19
2018-12-06T06:01:29.596Z,1009.16
2018-12-06T06:02:29.552Z,1009.23
2018-12-06T06:03:29.501Z,1009.26
2018-12-06T06:04:29.461Z,1009.27
2018-12-06T06:05:29.442Z,1009.29
2018-12-06T06:06:29.374Z,1009.29
2018-12-06T06:07:29.337Z,1009.28
2018-12-06T06:08:29.306Z,1009.33
2018-12-06T06:09:29.245Z,1009.30
2018-12-06T06:10:29.226Z,1009.30
2018-12-06T06:11:29.193Z,1009.29
2018-12-06T06:12:29.127Z,1009.29
2018-12-06T06:13:29.085Z,1009.28
2018-12-06T06:14:29.037Z,1009.25
2018-12-06T06:15:28.989Z,1009.21
2018-12-06T06:16:28.972Z,1009.19
2018-12-06T06:17:28.906Z,1009.16
2018-12-06T06:18:28.859Z,1009.10
2018-12-06T06:19:28.825Z,1009.18
2018-12-06T06:20:28.805Z,1009.14
2018-12-06T06:21:28.764Z,1009.23
2018-12-06T06:22:28.702Z,1009.21
2018-12-06T06:23:28.648Z,1009.25
2018-12-06T06:24:28.607Z,1009.28
2018-12-06T06:25:28.592Z,1009.31
2018-12-06T06:26:28.548Z,1009.36
2018-12-06T06:27:28.477Z,1009.34
2018-12-06T06:28:28.431Z,1009.40
2018-12-06T06:29:28.391Z,1009.37
2018-12-06T06:30:28.345Z,1009.38
2018-12-06T06:31:28.337Z,1009.42
2018-12-06T06:32:28.269Z,1009.36
2018-12-06T06:33:28.225Z,1009.37
2018-12-06T06:34:28.184Z,1009.40
2018-12-06T06:35:28.134Z,1009.44
2018-12-06T06:36:28.117Z,1009.47
2018-12-06T06:37:28.051Z,1009.46
2018-12-06T06:38:28.006Z,1009.46
2018-12-06T06:39:27.995Z,1009.49
2018-12-06T06:40:27.928Z,1009.56
2018-12-06T06:41:27.907Z,1009.64
2018-12-06T06:42:27.833Z,1009.66
2018-12-06T06:43:27.809Z,1009.71
2018-12-06T06:44:27.766Z,1009.76
2018-12-06T06:45:27.713Z,1009.83
2018-12-06T06:46:27.697Z,1009.87
2018-12-06T06:47:28.543Z,1009.87
2018-12-06T06:48:27.605Z,1009.87
2018-12-06T06:49:27.536Z,1009.87
2018-12-06T06:50:27.496Z,1009.88
2018-12-06T06:51:27.459Z,1009.91
2018-12-06T06:52:27.437Z,1009.90
2018-12-06T06:53:27.373Z,1009.94
2018-12-06T06:54:27.330Z,1009.96
2018-12-06T06:55:27.284Z,1009.97
2018-12-06T06:56:27.268Z,1009.96
2018-12-06T06:57:27.202Z,1009.96
2018-12-06T06:58:27.158Z,1009.94
2018-12-06T06:59:27.110Z,1009.94
2018-12-06T07:00:27.066Z,1009.90
2018-12-06T07:01:27.024Z,1009.94
2018-12-06T07:02:27.004Z,1009.91
2018-12-06T07:03:26.969Z,1009.97
2018-12-06T07:04:26.906Z,1009.97
2018-12-06T07:05:26.862Z,1009.99
2018-12-06T07:06:26.818Z,1010.03
2018-12-06T07:07:26.790Z,1010.02
2018-12-06T07:08:26.730Z,1010.04
2018-12-06T07:09:26.685Z,1010.02
2018-12-06T07:10:26.643Z,1010.03
2018-12-06T07:11:26.605Z,1009.99
2018-12-06T07:12:26.586Z,1010.08
2018-12-06T07:13:26.515Z,1010.12
2018-12-06T07:14:26.496Z,1010.14
2018-12-06T07:15:26.434Z,1010.17
2018-12-06T07:16:26.393Z,1010.21
2018-12-06T07:17:26.356Z,1010.20
2018-12-06T07:18:26.308Z,1010.23
2018-12-06T07:19:26.258Z,1010.20
2018-12-06T07:20:26.239Z,1010.24
2018-12-06T07:21:26.172Z,1010.27
2018-12-06T07:22:26.139Z,1010.25
2018-12-06T07:23:26.116Z,1010.27
2018-12-06T07:24:26.056Z,1010.21
2018-12-06T07:25:26.010Z,1010.20
2018-12-06T07:26:25.966Z,1010.18
2018-12-06T07:27:25.920Z,1010.17
2018-12-06T07:28:25.902Z,1010.20
2018-12-06T07:29:25.848Z,1010.21
2018-12-06T07:30:25.798Z,1010.26
2018-12-06T07:31:25.752Z,1010.29
2018-12-06T07:32:25.708Z,1010.28
2018-12-06T07:33:25.694Z,1010.32
2018-12-06T07:34:25.623Z,1010.27
2018-12-06T07:35:25.588Z,1010.33
2018-12-06T07:36:25.563Z,1010.35
2018-12-06T07:37:25.501Z,1010.35
2018-12-06T07:38:25.463Z,1010.37
2018-12-06T07:39:25.433Z,1010.39
2018-12-06T07:40:25.366Z,1010.36
2018-12-06T07:41:25.329Z,1010.35
2018-12-06T07:42:25.281Z,1010.35
2018-12-06T07:43:25.271Z,1010.40
2018-12-06T07:44:25.229Z,1010.43
2018-12-06T07:45:25.158Z,1010.48
2018-12-06T07:46:25.113Z,1010.52
2018-12-06T07:47:25.079Z,1010.48
2018-12-06T07:48:25.040Z,1010.46
2018-12-06T07:49:25.021Z,1010.49
2018-12-06T07:50:24.951Z,1010.51
2018-12-06T07:51:24.904Z,1010.55
2018-12-06T07:52:24.861Z,1010.55
2018-12-06T07:53:24.816Z,1010.57
2018-12-06T07:54:24.779Z,1010.59
2018-12-06T07:55:24.769Z,1010.60
2018-12-06T07:56:24.698Z,1010.55
2018-12-06T07:57:24.655Z,1010.55
2018-12-06T07:58:24.616Z,1010.51
2018-12-06T07:59:24.567Z,1010.58
2018-12-06T08:00:24.523Z,1010.66
2018-12-06T08:01:24.512Z,1010.68
2018-12-06T08:02:24.446Z,1010.72
2018-12-06T08:03:24.393Z,1010.66
2018-12-06T08:04:24.354Z,1010.68
2018-12-06T08:05:24.310Z,1010.60
2018-12-06T08:06:24.295Z,1010.61
2018-12-06T08:07:24.234Z,1010.63
2018-12-06T08:08:24.196Z,1010.68
2018-12-06T08:09:24.149Z,1010.63
2018-12-06T08:10:24.106Z,1010.61
2018-12-06T08:11:24.087Z,1010.60
2018-12-06T08:12:24.018Z,1010.60
2018-12-06T08:13:23.975Z,1010.58
2018-12-06T08:14:23.935Z,1010.53
2018-12-06T08:15:23.899Z,1010.58
2018-12-06T08:16:23.855Z,1010.54
2018-12-06T08:17:23.830Z,1010.58
2018-12-06T08:18:23.762Z,1010.56
2018-12-06T08:19:23.729Z,1010.62
2018-12-06T08:20:23.688Z,1010.63
2018-12-06T08:21:23.648Z,1010.60
2018-12-06T08:22:23.624Z,1010.55
2018-12-06T08:23:23.554Z,1010.57
2018-12-06T08:24:23.511Z,1010.52
2018-12-06T08:25:23.472Z,1010.53
2018-12-06T08:26:23.429Z,1010.57
2018-12-06T08:27:23.422Z,1010.50
2018-12-06T08:28:23.355Z,1010.47
2018-12-06T08:29:23.312Z,1010.45
2018-12-06T08:30:23.295Z,1010.48
2018-12-06T08:31:23.219Z,1010.48
2018-12-06T08:32:23.206Z,1010.50
2018-12-06T08:33:23.142Z,1010.50
2018-12-06T08:34:23.100Z,1010.51
2018-12-06T08:35:23.049Z,1010.50
2018-12-06T08:36:23.015Z,1010.58
2018-12-06T08:37:22.966Z,1010.52
2018-12-06T08:38:22.946Z,1010.56
2018-12-06T08:39:22.891Z,1010.52
2018-12-06T08:40:22.846Z,1010.54
2018-12-06T08:41:22.805Z,1010.46
2018-12-06T08:42:22.764Z,1010.59
2018-12-06T08:43:22.744Z,1010.63
2018-12-06T08:44:22.671Z,1010.65
2018-12-06T08:45:22.628Z,1010.67
2018-12-06T08:46:22.587Z,1010.68
2018-12-06T08:47:22.548Z,1010.62
2018-12-06T08:48:22.510Z,1010.63
2018-12-06T08:49:22.484Z,1010.67
2018-12-06T08:50:22.421Z,1010.73
2018-12-06T08:51:22.385Z,1010.75
2018-12-06T08:52:22.341Z,1010.78
2018-12-06T08:53:22.298Z,1010.77
2018-12-06T08:54:22.279Z,1010.78
2018-12-06T08:55:22.206Z,1010.80
2018-12-06T08:56:22.170Z,1010.76
2018-12-06T08:57:22.146Z,1010.78
2018-12-06T08:58:22.085Z,1010.78
2018-12-06T08:59:22.047Z,1010.81
2018-12-06T09:00:22.006Z,1010.80
2018-12-06T09:01:21.963Z,1010.78
2018-12-06T09:02:21.947Z,1010.75
2018-12-06T09:03:21.872Z,1010.83
2018-12-06T09:04:21.852Z,1010.87
2018-12-06T09:05:21.795Z,1010.85
2018-12-06T09:06:21.753Z,1010.89
2018-12-06T09:07:21.733Z,1010.89
2018-12-06T09:08:21.662Z,1010.88
2018-12-06T09:09:21.623Z,1010.81
2018-12-06T09:10:21.579Z,1010.80
2018-12-06T09:11:21.543Z,1010.82
2018-12-06T09:12:21.504Z,1010.85
2018-12-06T09:13:21.490Z,1010.83
2018-12-06T09:14:21.441Z,1010.82
2018-12-06T09:15:21.368Z,1010.78
2018-12-06T09:16:21.330Z,1010.76
2018-12-06T09:17:21.286Z,1010.71
2018-12-06T09:18:21.245Z,1010.68
2018-12-06T09:19:21.233Z,1010.61
2018-12-06T09:20:21.167Z,1010.63
2018-12-06T09:21:21.119Z,1010.64
2018-12-06T09:22:21.079Z,1010.60
2018-12-06T09:23:21.039Z,1010.63
2018-12-06T09:24:21.022Z,1010.63
2018-12-06T09:25:21.521Z,1010.66
2018-12-06T09:26:20.915Z,1010.62
2018-12-06T09:27:20.867Z,1010.55
2018-12-06T09:28:20.850Z,1010.57
2018-12-06T09:29:20.812Z,1010.55
2018-12-06T09:30:20.742Z,1010.58
2018-12-06T09:31:20.707Z,1010.60
2018-12-06T09:32:20.667Z,1010.60
2018-12-06T09:33:20.624Z,1010.64
2018-12-06T09:34:20.582Z,1010.66
2018-12-06T09:35:20.557Z,1010.72
2018-12-06T09:36:20.496Z,1010.76
2018-12-06T09:37:20.457Z,1010.83
2018-12-06T09:38:20.417Z,1010.85
2018-12-06T09:39:20.372Z,1010.88
2018-12-06T09:40:20.357Z,1010.92
2018-12-06T09:41:20.286Z,1010.94
2018-12-06T09:42:20.243Z,1010.96
2018-12-06T09:43:20.214Z,1011.00
2018-12-06T09:44:20.171Z,1011.03
2018-12-06T09:45:20.149Z,1011.06
2018-12-06T09:46:20.110Z,1011.05
2018-12-06T09:47:20.039Z,1011.00
2018-12-06T09:48:19.995Z,1010.98
2018-12-06T09:49:19.979Z,1011.01
2018-12-06T09:50:19.938Z,1011.04
2018-12-06T09:51:19.878Z,1011.06
2018-12-06T09:52:19.837Z,1011.06
2018-12-06T09:53:19.789Z,1011.07
2018-12-06T09:54:19.752Z,1011.15
2018-12-06T09:55:19.742Z,1011.16
2018-12-06T09:56:19.676Z,1011.17
2018-12-06T09:57:19.635Z,1011.21
2018-12-06T09:58:19.597Z,1011.22
2018-12-06T09:59:19.542Z,1011.19
2018-12-06T10:00:19.503Z,1011.20
2018-12-06T10:01:19.484Z,1011.23
2018-12-06T10:02:19.422Z,1011.22
2018-12-06T10:03:19.390Z,1011.21
2018-12-06T10:04:19.344Z,1011.22
2018-12-06T10:05:19.328Z,1011.23
2018-12-06T10:06:19.262Z,1011.29
2018-12-06T10:07:19.214Z,1011.28
2018-12-06T10:08:19.174Z,1011.27
2018-12-06T10:09:19.139Z,1011.26
2018-12-06T10:10:19.097Z,1011.23
2018-12-06T10:11:19.074Z,1011.27
2018-12-06T10:12:19.009Z,1011.24
2018-12-06T10:13:18.967Z,1011.25
2018-12-06T10:14:19.773Z,1011.27
2018-12-06T10:15:18.922Z,1011.31
2018-12-06T10:16:18.853Z,1011.31
2018-12-06T10:17:18.816Z,1011.26
2018-12-06T10:18:18.770Z,1011.26
2018-12-06T10:19:18.724Z,1011.23
2018-12-06T10:20:18.680Z,1011.19
2018-12-06T10:21:18.665Z,1011.18
2018-12-06T10:22:18.599Z,1011.17
2018-12-06T10:23:18.573Z,1011.17
2018-12-06T10:24:18.527Z,1011.18
2018-12-06T10:25:18.490Z,1011.20
2018-12-06T10:26:18.458Z,1011.24
2018-12-06T10:27:18.403Z,1011.21
2018-12-06T10:28:18.360Z,1011.17
2018-12-06T10:29:18.322Z,1011.14
2018-12-06T10:30:18.283Z,1011.16
2018-12-06T10:31:18.255Z,1011.22
2018-12-06T10:32:18.190Z,1011.27
2018-12-06T10:33:18.148Z,1011.32
2018-12-06T10:34:18.114Z,1011.31
2018-12-06T10:35:18.076Z,1011.34
2018-12-06T10:36:18.056Z,1011.37
2018-12-06T10:37:17.993Z,1011.36
2018-12-06T10:38:17.956Z,1011.38
2018-12-06T10:39:17.904Z,1011.35
2018-12-06T10:40:17.872Z,1011.37
2018-12-06T10:41:17.852Z,1011.38
2018-12-06T10:42:17.788Z,1011.33
2018-12-06T10:43:17.745Z,1011.36
2018-12-06T10:44:17.704Z,1011.37
2018-12-06T10:45:17.669Z,1011.36
2018-12-06T10:46:17.654Z,1011.40
2018-12-06T10:47:17.590Z,1011.38
2018-12-06T10:48:17.552Z,1011.39
2018-12-06T10:49:17.511Z,1011.45
2018-12-06T10:50:17.469Z,1011.47
2018-12-06T10:51:17.454Z,1011.48
2018-12-06T10:52:17.406Z,1011.41
2018-12-06T10:53:17.344Z,1011.37
2018-12-06T10:54:17.301Z,1011.34
2018-12-06T10:55:17.268Z,1011.41
2018-12-06T10:56:17.230Z,1011.42
2018-12-06T10:57:17.205Z,1011.36
2018-12-06T10:58:17.143Z,1011.38
2018-12-06T10:59:17.112Z,1011.38
2018-12-06T11:00:17.067Z,1011.38
2018-12-06T11:01:17.028Z,1011.37
2018-12-06T11:02:17.014Z,1011.34
2018-12-06T11:03:16.945Z,1011.32
2018-12-06T11:04:16.900Z,1011.32
2018-12-06T11:05:16.859Z,1011.33
2018-12-06T11:06:16.841Z,1011.29
2018-12-06T11:07:16.787Z,1011.27
2018-12-06T11:08:16.777Z,1011.24
2018-12-06T11:09:16.709Z,1011.25
2018-12-06T11:10:16.667Z,1011.23
2018-12-06T11:11:16.620Z,1011.19
2018-12-06T11:12:16.585Z,1011.22
2018-12-06T11:13:16.574Z,1011.23
2018-12-06T11:14:16.505Z,1011.24
2018-12-06T11:15:16.461Z,1011.28
2018-12-06T11:16:16.420Z,1011.25
2018-12-06T11:17:16.377Z,1011.24
2018-12-06T11:18:16.368Z,1011.24
2018-12-06T11:19:16.306Z,1011.31
2018-12-06T11:20:16.263Z,1011.29
2018-12-06T11:21:16.225Z,1011.30
2018-12-06T11:22:16.186Z,1011.34
2018-12-06T11:23:16.136Z,1011.35
2018-12-06T11:24:16.126Z,1011.31
2018-12-06T11:25:16.058Z,1011.35
2018-12-06T11:26:16.015Z,1011.38
2018-12-06T11:27:15.981Z,1011.38
2018-12-06T11:28:15.941Z,1011.41
2018-12-06T11:29:15.919Z,1011.44
2018-12-06T11:30:15.852Z,1011.48
2018-12-06T11:31:15.834Z,1011.48
2018-12-06T11:32:15.783Z,1011.52
2018-12-06T11:33:15.740Z,1011.53
2018-12-06T11:34:15.727Z,1011.52
2018-12-06T11:35:15.734Z,1011.53
2018-12-06T11:36:15.613Z,1011.48
2018-12-06T11:37:15.571Z,1011.51
2018-12-06T11:38:15.529Z,1011.55
2018-12-06T11:39:15.497Z,1011.58
2018-12-06T11:40:15.493Z,1011.61
2018-12-06T11:41:15.418Z,1011.61
2018-12-06T11:42:15.383Z,1011.64
2018-12-06T11:43:15.330Z,1011.66
2018-12-06T11:44:15.293Z,1011.65
2018-12-06T11:45:15.257Z,1011.62
2018-12-06T11:46:15.245Z,1011.62
2018-12-06T11:47:15.171Z,1011.59
2018-12-06T11:48:15.125Z,1011.60
2018-12-06T11:49:15.090Z,1011.60
2018-12-06T11:50:15.046Z,1011.59
2018-12-06T11:51:15.012Z,1011.59
2018-12-06T11:52:14.997Z,1011.53
2018-12-06T11:53:14.935Z,1011.52
2018-12-06T11:54:14.891Z,1011.61
2018-12-06T11:55:14.874Z,1011.60
2018-12-06T11:56:14.810Z,1011.63
2018-12-06T11:57:14.792Z,1011.66
2018-12-06T11:58:14.722Z,1011.61
2018-12-06T11:59:14.689Z,1011.60
2018-12-06T12:00:14.649Z,1011.63
2018-12-06T12:01:14.602Z,1011.61
2018-12-06T12:02:14.558Z,1011.56
2018-12-06T12:03:14.552Z,1011.62
2018-12-06T12:04:14.485Z,1011.65
2018-12-06T12:05:14.474Z,1011.66